Time;durP1;ratioP1;P1;durP2;ratioP2;P2;SDS_P1;SDS_P2;PMS_P1;PMS_P2;Temp;Humidity;BMP_temperature;BMP_pressure;BME280_temperature;BME280_humidity;BME280_pressure;Samples;Min_cycle;Max_cycle;Signal;HPM_P1;HPM_P2
2021/04/27 00:00:28;;;;;;;13.23;11.83;;;;;19.90;100236.00;;;;2079885;28;20222;-64
2021/04/27 00:01:28;;;;;;;13.93;12.53;;;;;19.90;100234.00;;;;2079569;28;20218;-63
2021/04/27 00:02:29;;;;;;;13.87;12.47;;;;;19.90;100234.00;;;;2079532;28;20225;-64
2021/04/27 00:03:29;;;;;;;14.37;12.10;;;;;19.90;100232.00;;;;2079632;28;20222;-64
2021/04/27 00:04:29;;;;;;;12.77;11.20;;;;;19.90;100234.00;;;;2079579;28;20225;-64
2021/04/27 00:05:30;;;;;;;13.27;11.90;;;;;19.90;100224.00;;;;2078931;28;20233;-66
2021/04/27 00:06:30;;;;;;;11.47;10.37;;;;;19.90;100226.00;;;;2079725;28;20214;-65
2021/04/27 00:07:30;;;;;;;11.83;10.53;;;;;19.90;100220.00;;;;2078415;28;20316;-65
2021/04/27 00:08:31;;;;;;;12.97;11.63;;;;;19.90;100223.00;;;;2079689;28;20268;-66
2021/04/27 00:09:31;;;;;;;12.20;11.00;;;;;19.80;100219.00;;;;2078541;28;20216;-65
2021/04/27 00:10:31;;;;;;;12.70;11.47;;;;;19.80;100218.00;;;;2079509;28;20225;-65
2021/04/27 00:11:32;;;;;;;12.33;11.13;;;;;19.90;100224.00;;;;2072300;28;20236;-66
2021/04/27 00:12:32;;;;;;;14.30;12.80;;;;;19.80;100218.00;;;;2078938;28;20248;-65
2021/04/27 00:13:33;;;;;;;12.93;11.50;;;;;19.70;100222.00;;;;2079514;28;20225;-65
2021/04/27 00:14:33;;;;;;;14.17;12.43;;;;;19.80;100224.00;;;;2079525;28;20277;-66
2021/04/27 00:15:33;;;;;;;10.57;9.50;;;;;19.80;100224.00;;;;2078717;28;20217;-65
2021/04/27 00:16:34;;;;;;;10.00;9.00;;;;;19.90;100217.00;;;;2079507;28;20735;-65
2021/04/27 00:17:35;;;;;;;10.53;9.30;;;;;19.90;100224.00;;;;2079486;28;20238;-65
2021/04/27 00:18:35;;;;;;;9.07;8.07;;;;;19.90;100217.00;;;;2073711;28;20522;-66
2021/04/27 00:19:35;;;;;;;9.70;8.40;;;;;19.90;100219.00;;;;2074481;28;20225;-65
2021/04/27 00:20:36;;;;;;;8.73;7.83;;;;;19.80;100220.00;;;;2074834;28;20222;-66
2021/04/27 00:21:37;;;;;;;8.40;7.57;;;;;19.90;100214.00;;;;2079391;28;20265;-65
2021/04/27 00:22:37;;;;;;;8.30;7.50;;;;;19.90;100208.00;;;;2079466;28;20236;-65
2021/04/27 00:23:37;;;;;;;14.97;7.77;;;;;19.90;100216.00;;;;2078767;28;20297;-65
2021/04/27 00:24:38;;;;;;;10.00;7.70;;;;;19.80;100213.00;;;;2078467;28;20699;-65
2021/04/27 00:25:38;;;;;;;9.20;7.30;;;;;19.80;100212.00;;;;2078605;28;20669;-65
2021/04/27 00:26:38;;;;;;;10.70;8.63;;;;;19.80;100211.00;;;;2078968;28;20716;-65
2021/04/27 00:27:39;;;;;;;10.00;7.90;;;;;19.80;100216.00;;;;2079211;28;20221;-65
2021/04/27 00:28:39;;;;;;;7.57;6.90;;;;;19.80;100213.00;;;;2079453;28;21055;-61
2021/04/27 00:29:39;;;;;;;7.97;7.17;;;;;19.80;100211.00;;;;2079353;28;20233;-65
2021/04/27 00:30:40;;;;;;;8.33;6.50;;;;;19.80;100208.00;;;;2079581;28;20226;-65
2021/04/27 00:31:40;;;;;;;9.57;6.77;;;;;19.80;100211.00;;;;2062746;28;20309;-65
2021/04/27 00:32:40;;;;;;;8.67;7.17;;;;;19.80;100204.00;;;;2059802;28;20236;-65
2021/04/27 00:33:41;;;;;;;7.63;6.83;;;;;19.80;100207.00;;;;2061435;28;20230;-65
2021/04/27 00:34:41;;;;;;;7.90;7.10;;;;;19.80;100202.00;;;;2070712;28;20274;-65
2021/04/27 00:35:41;;;;;;;7.97;7.17;;;;;19.80;100195.00;;;;2078779;28;20294;-65
2021/04/27 00:36:42;;;;;;;9.03;8.13;;;;;19.70;100197.00;;;;2079176;28;20222;-65
2021/04/27 00:37:42;;;;;;;7.70;6.73;;;;;19.70;100206.00;;;;2079248;28;20228;-65
2021/04/27 00:38:42;;;;;;;6.80;6.13;;;;;19.70;100211.00;;;;2078893;28;20222;-65
2021/04/27 00:39:43;;;;;;;8.77;7.40;;;;;19.70;100198.00;;;;2075698;28;21165;-65
2021/04/27 00:40:43;;;;;;;8.33;7.47;;;;;19.70;100205.00;;;;2078742;28;20685;-65
2021/04/27 00:41:43;;;;;;;7.40;6.70;;;;;19.70;100198.00;;;;2078597;28;20222;-65
2021/04/27 00:42:46;;;;;;;7.47;6.53;;;;;19.70;100210.00;;;;2079199;28;20276;-65
2021/04/27 00:43:46;;;;;;;7.72;6.85;;;;;19.70;100210.00;;;;2079272;28;20715;-65
2021/04/27 00:44:46;;;;;;;6.80;6.20;;;;;19.70;100207.00;;;;2079505;28;20229;-65
2021/04/27 00:45:47;;;;;;;8.00;6.53;;;;;19.70;100205.00;;;;2078269;28;20305;-65
2021/04/27 00:46:47;;;;;;;7.03;6.23;;;;;19.70;100194.00;;;;2078915;28;20224;-65
2021/04/27 00:47:48;;;;;;;7.27;6.57;;;;;19.70;100196.00;;;;2079097;28;20645;-65
2021/04/27 00:48:48;;;;;;;6.83;5.93;;;;;19.70;100202.00;;;;2079065;28;20685;-65
2021/04/27 00:49:49;;;;;;;5.90;5.40;;;;;19.60;100195.00;;;;2079150;28;20572;-65
2021/04/27 00:50:49;;;;;;;9.07;6.47;;;;;19.60;100200.00;;;;2079299;28;20218;-65
2021/04/27 00:51:49;;;;;;;7.13;6.43;;;;;19.60;100196.00;;;;2075303;28;20516;-65
2021/04/27 00:52:50;;;;;;;6.90;5.87;;;;;19.60;100201.00;;;;2077246;28;20213;-65
2021/04/27 00:53:51;;;;;;;7.10;6.43;;;;;19.60;100201.00;;;;2070351;28;20215;-65
2021/04/27 00:54:51;;;;;;;6.57;5.67;;;;;19.60;100194.00;;;;2069210;28;20215;-65
2021/04/27 00:55:52;;;;;;;6.03;5.47;;;;;19.60;100193.00;;;;2078359;28;20210;-65
2021/04/27 00:56:52;;;;;;;6.37;5.77;;;;;19.60;100195.00;;;;2079209;28;20209;-65
2021/04/27 00:57:53;;;;;;;5.87;5.37;;;;;19.60;100196.00;;;;2076043;28;20202;-64
2021/04/27 00:58:53;;;;;;;6.53;5.87;;;;;19.60;100195.00;;;;2079226;28;20291;-65
2021/04/27 00:59:55;;;;;;;5.90;5.37;;;;;19.60;100194.00;;;;2079274;28;20210;-65
2021/04/27 01:00:56;;;;;;;6.50;5.90;;;;;19.60;100194.00;;;;2079366;28;20252;-65
2021/04/27 01:01:56;;;;;;;6.00;5.43;;;;;19.60;100187.00;;;;2078928;28;20218;-65
2021/04/27 01:02:56;;;;;;;7.33;6.03;;;;;19.60;100196.00;;;;2079128;28;20249;-65
2021/04/27 01:03:57;;;;;;;6.10;5.50;;;;;19.60;100194.00;;;;2078245;28;20206;-65
2021/04/27 01:04:57;;;;;;;6.10;5.50;;;;;19.60;100194.00;;;;2078626;28;20896;-65
2021/04/27 01:05:57;;;;;;;5.90;5.30;;;;;19.60;100193.00;;;;2078086;28;20653;-65
2021/04/27 01:06:58;;;;;;;5.90;5.30;;;;;19.60;100194.00;;;;2078897;28;20225;-65
2021/04/27 01:08:09;;;;;;;5.40;4.90;;;;;19.60;100198.00;;;;2078190;28;20214;-65
2021/04/27 01:09:15;;;;;;;5.50;5.00;;;;;19.60;100195.00;;;;2078356;28;20221;-65
2021/04/27 01:10:17;;;;;;;5.13;4.63;;;;;19.60;100199.00;;;;2074989;28;20218;-65
2021/04/27 01:11:36;;;;;;;5.78;5.18;;;;;19.60;100197.00;;;;2065323;28;20647;-64
2021/04/27 01:12:39;;;;;;;6.13;5.32;;;;;19.60;100193.00;;;;2074659;28;20264;-65
2021/04/27 01:14:06;;;;;;;4.82;4.43;;;;;19.50;100131.00;;;;2078641;28;20245;-65
2021/04/27 01:15:08;;;;;;;4.95;4.47;;;;;19.60;100196.00;;;;2070962;28;20214;-65
2021/04/27 01:16:09;;;;;;;5.25;4.75;;;;;19.50;100194.00;;;;2051419;28;20214;-65
2021/04/27 01:17:11;;;;;;;5.77;5.20;;;;;19.50;100188.00;;;;2062185;28;20644;-65
2021/04/27 01:18:11;;;;;;;5.35;4.85;;;;;19.50;100183.00;;;;2077536;28;20499;-65
2021/04/27 01:19:18;;;;;;;5.33;4.87;;;;;19.50;100188.00;;;;2078009;28;20210;-65
2021/04/27 01:20:38;;;;;;;5.15;4.63;;;;;19.50;100187.00;;;;2069340;28;20291;-65
2021/04/27 01:21:38;;;;;;;5.53;5.03;;;;;19.50;100181.00;;;;2078224;28;20222;-65
2021/04/27 01:22:53;;;;;;;5.90;5.40;;;;;19.50;100182.00;;;;2070201;28;20704;-65
2021/04/27 01:23:57;;;;;;;5.40;4.70;;;;;19.50;100185.00;;;;2045773;28;20219;-65
2021/04/27 01:24:57;;;;;;;5.35;4.85;;;;;19.50;100185.00;;;;2070345;28;20207;-65
2021/04/27 01:26:19;;;;;;;5.00;4.60;;;;;19.50;100188.00;;;;2064772;28;20213;-65
2021/04/27 01:27:19;;;;;;;4.97;4.57;;;;;19.50;100181.00;;;;2071739;28;20604;-65
2021/04/27 01:28:20;;;;;;;4.60;4.20;;;;;19.50;100180.00;;;;2078966;28;20241;-65
2021/04/27 01:29:22;;;;;;;4.70;4.30;;;;;19.50;100183.00;;;;2078047;28;20214;-65
2021/04/27 01:30:23;;;;;;;6.28;5.47;;;;;19.50;100177.00;;;;2078363;28;20210;-65
2021/04/27 01:31:24;;;;;;;5.30;4.80;;;;;19.50;100172.00;;;;2066695;28;20631;-65
2021/04/27 01:32:24;;;;;;;4.70;4.30;;;;;19.50;100183.00;;;;2070163;28;20913;-65
2021/04/27 01:33:27;;;;;;;4.57;4.17;;;;;19.50;100174.00;;;;2062194;28;20316;-65
2021/04/27 01:34:31;;;;;;;6.90;4.43;;;;;19.50;100166.00;;;;2062075;28;20219;-65
2021/04/27 01:35:32;;;;;;;4.88;4.38;;;;;19.50;100169.00;;;;2054922;28;20294;-65
2021/04/27 01:36:33;;;;;;;4.33;3.93;;;;;19.50;100164.00;;;;2061822;28;20215;-65
2021/04/27 01:37:33;;;;;;;4.60;4.20;;;;;19.50;100165.00;;;;2070132;28;20277;-65
2021/04/27 01:38:33;;;;;;;4.17;3.80;;;;;19.50;100151.00;;;;2069948;28;20883;-65
2021/04/27 01:39:34;;;;;;;4.50;3.80;;;;;19.50;100167.00;;;;2049796;28;20591;-65
2021/04/27 01:40:34;;;;;;;4.83;4.40;;;;;19.50;100159.00;;;;2070131;28;20214;-65
2021/04/27 01:41:35;;;;;;;6.10;4.10;;;;;19.50;100166.00;;;;2073914;28;20828;-65
2021/04/27 01:42:35;;;;;;;4.67;4.20;;;;;19.40;100159.00;;;;2078258;28;20209;-65
2021/04/27 01:43:36;;;;;;;3.90;3.60;;;;;19.40;100166.00;;;;2066954;28;20751;-65
2021/04/27 01:44:37;;;;;;;4.37;3.97;;;;;19.40;100160.00;;;;2069433;28;20674;-65
2021/04/27 01:45:37;;;;;;;5.30;4.90;;;;;19.40;100157.00;;;;2077799;28;20724;-65
2021/04/27 01:46:38;;;;;;;4.73;4.33;;;;;19.40;100158.00;;;;2061770;28;20305;-65
2021/04/27 01:47:38;;;;;;;6.43;4.70;;;;;19.40;100159.00;;;;2053948;28;20235;-65
2021/04/27 01:48:38;;;;;;;4.57;4.17;;;;;19.40;100149.00;;;;2070157;28;20223;-65
2021/04/27 01:49:40;;;;;;;4.40;4.00;;;;;19.40;100152.00;;;;2078135;28;20253;-65
2021/04/27 01:50:41;;;;;;;4.72;4.22;;;;;19.40;100157.00;;;;2078230;28;20218;-65
2021/04/27 01:51:42;;;;;;;4.50;4.10;;;;;19.40;100154.00;;;;2078649;28;20773;-65
2021/04/27 01:52:42;;;;;;;5.10;4.60;;;;;19.40;100151.00;;;;2078482;28;20210;-65
2021/04/27 01:53:44;;;;;;;4.10;3.80;;;;;19.40;100160.00;;;;2078286;28;20260;-65
2021/04/27 01:54:44;;;;;;;4.63;4.22;;;;;19.40;100153.00;;;;2077070;28;20780;-65
2021/04/27 01:55:44;;;;;;;4.00;3.60;;;;;19.40;100155.00;;;;2078241;28;20329;-65
2021/04/27 01:56:45;;;;;;;4.00;3.60;;;;;19.40;100151.00;;;;2078090;28;20708;-65
2021/04/27 01:57:45;;;;;;;4.40;4.00;;;;;19.40;100150.00;;;;2078092;28;20677;-65
2021/04/27 01:58:46;;;;;;;4.63;4.13;;;;;19.40;100158.00;;;;2078785;28;20279;-64
2021/04/27 01:59:46;;;;;;;4.40;4.00;;;;;19.40;100157.00;;;;2078899;28;20221;-65
2021/04/27 02:00:47;;;;;;;4.60;4.20;;;;;19.40;100154.00;;;;2079010;28;20308;-65
2021/04/27 02:01:47;;;;;;;4.47;4.07;;;;;19.40;100156.00;;;;2078702;28;20640;-65
2021/04/27 02:02:47;;;;;;;4.70;4.30;;;;;19.40;100147.00;;;;2078874;28;20210;-65
2021/04/27 02:03:48;;;;;;;4.27;3.87;;;;;19.40;100147.00;;;;2074955;28;20726;-65
2021/04/27 02:04:48;;;;;;;7.20;4.60;;;;;19.40;100150.00;;;;2078971;28;20218;-65
2021/04/27 02:05:49;;;;;;;4.40;3.70;;;;;19.40;100145.00;;;;2078249;28;20225;-65
2021/04/27 02:06:49;;;;;;;4.00;3.60;;;;;19.40;100147.00;;;;2078627;28;20214;-65
2021/04/27 02:07:49;;;;;;;4.40;3.87;;;;;19.40;100146.00;;;;2078505;28;20230;-65
2021/04/27 02:09:02;;;;;;;4.07;3.77;;;;;19.30;100149.00;;;;2078973;28;20225;-65
2021/04/27 02:10:04;;;;;;;4.63;3.67;;;;;19.30;100149.00;;;;2078654;28;20557;-65
2021/04/27 02:11:04;;;;;;;4.65;4.22;;;;;19.30;100146.00;;;;2070294;28;20229;-65
2021/04/27 02:12:05;;;;;;;4.03;3.63;;;;;19.30;100148.00;;;;2078743;28;20321;-64
2021/04/27 02:13:11;;;;;;;4.77;3.90;;;;;19.30;100149.00;;;;2077750;28;20628;-65
2021/04/27 02:14:12;;;;;;;4.22;3.80;;;;;19.30;100148.00;;;;2078173;28;20472;-65
2021/04/27 02:15:13;;;;;;;5.88;3.88;;;;;19.30;100148.00;;;;2078242;28;20210;-65
2021/04/27 02:16:14;;;;;;;4.15;3.75;;;;;19.30;100147.00;;;;2077505;28;20240;-65
2021/04/27 02:17:18;;;;;;;4.13;3.73;;;;;19.30;100142.00;;;;2078418;28;20632;-65
2021/04/27 02:18:20;;;;;;;4.93;3.70;;;;;19.30;100137.00;;;;2074188;28;20217;-65
2021/04/27 02:19:25;;;;;;;4.53;4.10;;;;;19.30;100144.00;;;;2078116;28;20256;-65
2021/04/27 02:20:26;;;;;;;4.20;3.83;;;;;19.30;100142.00;;;;2078140;28;20224;-65
2021/04/27 02:21:26;;;;;;;3.90;3.60;;;;;19.30;100137.00;;;;2078814;28;20218;-65
2021/04/27 02:22:27;;;;;;;3.80;3.50;;;;;19.30;100135.00;;;;2080579;28;20993;-65
2021/04/27 02:23:30;;;;;;;4.50;4.10;;;;;19.30;100144.00;;;;2080402;28;20308;-65
2021/04/27 02:24:33;;;;;;;4.07;3.67;;;;;19.30;100141.00;;;;2080015;28;20460;-65
2021/04/27 02:25:34;;;;;;;3.63;3.33;;;;;19.30;100144.00;;;;2076212;28;20272;-65
2021/04/27 02:26:35;;;;;;;3.40;3.10;;;;;19.30;100136.00;;;;2079408;28;20260;-65
2021/04/27 02:27:35;;;;;;;3.80;3.50;;;;;19.30;100135.00;;;;2071539;28;21010;-65
2021/04/27 02:28:35;;;;;;;3.83;3.53;;;;;19.30;100136.00;;;;2055543;28;20243;-65
2021/04/27 02:29:36;;;;;;;4.33;3.57;;;;;19.30;100137.00;;;;2063464;28;20225;-65
2021/04/27 02:30:36;;;;;;;4.13;3.80;;;;;19.30;100134.00;;;;2080175;28;20213;-65
2021/04/27 02:31:36;;;;;;;4.00;3.60;;;;;19.30;100136.00;;;;2071714;28;20718;-65
2021/04/27 02:32:37;;;;;;;4.53;4.13;;;;;19.30;100140.00;;;;2063418;28;20666;-65
2021/04/27 02:33:39;;;;;;;5.30;3.40;;;;;19.30;100145.00;;;;2079569;28;20213;-64
2021/04/27 02:34:42;;;;;;;4.00;3.70;;;;;19.30;100133.00;;;;2080112;28;20214;-64
2021/04/27 02:35:42;;;;;;;4.03;3.63;;;;;19.30;100133.00;;;;2075254;28;20214;-65
2021/04/27 02:36:42;;;;;;;4.37;3.97;;;;;19.30;100130.00;;;;2071519;28;20219;-64
2021/04/27 02:37:45;;;;;;;3.93;3.60;;;;;19.30;100133.00;;;;2079635;28;20296;-65
2021/04/27 02:38:45;;;;;;;3.88;3.45;;;;;19.30;100138.00;;;;2080326;28;20276;-65
2021/04/27 02:39:45;;;;;;;4.43;3.50;;;;;19.30;100128.00;;;;2079081;28;20213;-65
2021/04/27 02:40:51;;;;;;;4.60;4.20;;;;;19.30;100135.00;;;;2079959;28;20206;-65
2021/04/27 02:41:51;;;;;;;4.00;3.70;;;;;19.30;100127.00;;;;2079777;28;20221;-65
2021/04/27 02:42:56;;;;;;;3.97;3.60;;;;;19.20;100128.00;;;;2079694;28;20758;-65
2021/04/27 02:43:57;;;;;;;4.30;3.90;;;;;19.20;100128.00;;;;2076208;28;20218;-65
2021/04/27 02:44:57;;;;;;;3.77;3.47;;;;;19.20;100127.00;;;;2079699;28;20228;-65
2021/04/27 02:45:57;;;;;;;4.00;3.67;;;;;19.30;100123.00;;;;2079186;28;20706;-65
2021/04/27 02:46:58;;;;;;;3.90;3.60;;;;;19.20;100129.00;;;;2080263;28;20628;-66
2021/04/27 02:48:11;;;;;;;4.67;3.50;;;;;19.20;100120.00;;;;2077158;28;20225;-65
2021/04/27 02:49:12;;;;;;;4.35;3.95;;;;;19.20;100121.00;;;;2071965;28;20275;-65
2021/04/27 02:50:13;;;;;;;5.27;3.90;;;;;19.30;100116.00;;;;2071623;28;20237;-64
2021/04/27 02:51:13;;;;;;;3.45;3.15;;;;;19.30;100119.00;;;;2073277;28;20238;-65
2021/04/27 02:52:13;;;;;;;3.97;3.57;;;;;19.30;100118.00;;;;2080218;28;20214;-65
2021/04/27 02:53:14;;;;;;;3.90;3.60;;;;;19.20;100111.00;;;;2080162;28;20214;-65
2021/04/27 02:54:14;;;;;;;3.77;3.20;;;;;19.20;100111.00;;;;2080041;28;20203;-65
2021/04/27 02:55:15;;;;;;;3.67;3.33;;;;;19.20;100113.00;;;;2079927;28;20209;-65
2021/04/27 02:56:15;;;;;;;3.93;3.60;;;;;19.20;100120.00;;;;2078437;28;21329;-65
2021/04/27 02:57:15;;;;;;;4.00;3.63;;;;;19.20;100123.00;;;;2079675;28;20598;-65
2021/04/27 02:58:16;;;;;;;3.50;3.20;;;;;19.20;100111.00;;;;2080214;28;20572;-65
2021/04/27 02:59:17;;;;;;;3.67;3.37;;;;;19.20;100114.00;;;;2080117;28;20213;-65
2021/04/27 03:00:17;;;;;;;4.23;3.90;;;;;19.20;100116.00;;;;2080076;28;20476;-65
2021/04/27 03:01:18;;;;;;;3.97;3.60;;;;;19.20;100118.00;;;;2079957;28;20222;-65
2021/04/27 03:02:18;;;;;;;3.33;3.13;;;;;19.20;100114.00;;;;2080216;28;20225;-65
2021/04/27 03:03:18;;;;;;;3.67;3.37;;;;;19.20;100120.00;;;;2080176;28;21033;-65
2021/04/27 03:04:19;;;;;;;4.07;3.67;;;;;19.20;100115.00;;;;2079948;28;20580;-65
2021/04/27 03:05:19;;;;;;;3.73;3.43;;;;;19.20;100117.00;;;;2079885;28;20217;-65
2021/04/27 03:06:19;;;;;;;3.70;3.40;;;;;19.20;100109.00;;;;2079584;28;20214;-65
2021/04/27 03:07:20;;;;;;;3.50;3.20;;;;;19.20;100120.00;;;;2080221;28;20284;-65
2021/04/27 03:08:20;;;;;;;3.73;3.43;;;;;19.10;100117.00;;;;2080097;28;20704;-65
2021/04/27 03:09:20;;;;;;;3.73;3.40;;;;;19.10;100118.00;;;;2079540;28;20810;-65
2021/04/27 03:10:21;;;;;;;4.13;3.83;;;;;19.20;100119.00;;;;2079044;28;20264;-65
2021/04/27 03:11:21;;;;;;;3.63;3.33;;;;;19.20;100119.00;;;;2079987;28;20272;-65
2021/04/27 03:12:21;;;;;;;3.67;3.37;;;;;19.20;100112.00;;;;2079580;28;20328;-65
2021/04/27 03:13:22;;;;;;;4.10;3.70;;;;;19.10;100111.00;;;;2080306;28;20309;-65
2021/04/27 03:14:22;;;;;;;4.27;3.20;;;;;19.20;100117.00;;;;2080097;28;20688;-65
2021/04/27 03:15:23;;;;;;;4.30;3.90;;;;;19.20;100119.00;;;;2080097;28;20704;-64
2021/04/27 03:16:23;;;;;;;4.07;3.67;;;;;19.10;100115.00;;;;2079377;28;20714;-65
2021/04/27 03:17:24;;;;;;;4.03;3.73;;;;;19.10;100110.00;;;;2080108;28;20217;-65
2021/04/27 03:18:24;;;;;;;4.37;3.30;;;;;19.20;100120.00;;;;2079959;28;20305;-65
2021/04/27 03:19:24;;;;;;;3.90;3.60;;;;;19.20;100112.00;;;;2076521;28;20216;-65
2021/04/27 03:20:25;;;;;;;4.33;4.00;;;;;19.20;100114.00;;;;2079984;28;20231;-65
2021/04/27 03:21:25;;;;;;;4.00;3.57;;;;;19.10;100115.00;;;;2079993;28;20244;-65
2021/04/27 03:22:25;;;;;;;4.00;3.70;;;;;19.10;100116.00;;;;2079916;28;20220;-65
2021/04/27 03:23:26;;;;;;;3.20;2.90;;;;;19.10;100118.00;;;;2079960;28;20206;-65
2021/04/27 03:24:26;;;;;;;4.57;3.80;;;;;19.10;100116.00;;;;2080126;28;20214;-65
2021/04/27 03:25:26;;;;;;;3.53;3.23;;;;;19.10;100116.00;;;;2079912;28;20218;-65
2021/04/27 03:26:27;;;;;;;4.33;3.57;;;;;19.10;100118.00;;;;2079347;28;20229;-65
2021/04/27 03:27:27;;;;;;;3.60;3.33;;;;;19.10;100120.00;;;;2079508;28;20763;-64
2021/04/27 03:28:28;;;;;;;3.67;3.23;;;;;19.10;100122.00;;;;2079772;28;20337;-65
2021/04/27 03:29:28;;;;;;;3.73;3.43;;;;;19.10;100115.00;;;;2079530;28;20221;-65
2021/04/27 03:30:28;;;;;;;3.70;3.40;;;;;19.10;100118.00;;;;2080180;28;20214;-64
2021/04/27 03:31:29;;;;;;;4.33;3.93;;;;;19.10;100120.00;;;;2079893;28;20205;-65
2021/04/27 03:32:30;;;;;;;4.40;3.88;;;;;19.10;100115.00;;;;2079780;28;20762;-65
2021/04/27 03:33:30;;;;;;;3.87;3.47;;;;;19.10;100120.00;;;;2078700;28;20260;-65
2021/04/27 03:34:30;;;;;;;3.67;3.37;;;;;19.10;100116.00;;;;2079770;28;20248;-65
2021/04/27 03:35:31;;;;;;;4.20;3.80;;;;;19.10;100117.00;;;;2079976;28;20202;-65
2021/04/27 03:36:31;;;;;;;3.50;3.20;;;;;19.10;100121.00;;;;2079427;28;20213;-65
2021/04/27 03:37:31;;;;;;;3.63;3.00;;;;;19.10;100120.00;;;;2075768;28;20206;-65
2021/04/27 03:38:32;;;;;;;3.60;3.30;;;;;19.10;100116.00;;;;2079806;28;20208;-65
2021/04/27 03:39:32;;;;;;;3.80;3.40;;;;;19.10;100111.00;;;;2079911;28;20241;-65
2021/04/27 03:40:32;;;;;;;3.77;3.47;;;;;19.10;100118.00;;;;2079002;28;20206;-65
2021/04/27 03:41:33;;;;;;;3.97;3.57;;;;;19.10;100107.00;;;;2078733;28;20209;-65
2021/04/27 03:42:33;;;;;;;4.70;3.83;;;;;19.10;100120.00;;;;2079866;28;20280;-65
2021/04/27 03:43:33;;;;;;;3.77;3.47;;;;;19.10;100110.00;;;;2079884;28;20217;-65
2021/04/27 03:44:34;;;;;;;4.40;4.00;;;;;19.10;100116.00;;;;2079831;28;20217;-65
2021/04/27 03:45:35;;;;;;;3.60;3.30;;;;;19.10;100110.00;;;;2073705;28;20680;-65
2021/04/27 03:46:35;;;;;;;4.40;4.00;;;;;19.00;100114.00;;;;2078273;28;20249;-65
2021/04/27 03:47:36;;;;;;;3.37;3.07;;;;;19.10;100106.00;;;;2080038;28;20214;-65
2021/04/27 03:48:36;;;;;;;4.43;3.63;;;;;19.10;100113.00;;;;2079355;28;20210;-65
2021/04/27 03:49:36;;;;;;;3.60;3.30;;;;;19.10;100107.00;;;;2079135;28;20271;-65
2021/04/27 03:50:37;;;;;;;4.23;3.77;;;;;19.10;100107.00;;;;2079094;28;20766;-65
2021/04/27 03:51:37;;;;;;;4.23;3.83;;;;;19.10;100108.00;;;;2079575;28;20222;-65
2021/04/27 03:52:38;;;;;;;4.03;3.70;;;;;19.10;100110.00;;;;2079839;28;20673;-65
2021/04/27 03:53:38;;;;;;;4.10;3.80;;;;;19.10;100105.00;;;;2079710;28;20292;-65
2021/04/27 03:54:38;;;;;;;3.87;3.57;;;;;19.10;100109.00;;;;2079545;28;20218;-65
2021/04/27 03:55:39;;;;;;;3.93;3.63;;;;;19.10;100109.00;;;;2079654;28;20221;-65
2021/04/27 03:56:39;;;;;;;3.97;3.67;;;;;19.10;100109.00;;;;2079119;28;20218;-65
2021/04/27 03:57:39;;;;;;;4.20;3.40;;;;;19.10;100104.00;;;;2079800;28;20715;-65
2021/04/27 03:58:40;;;;;;;4.30;3.47;;;;;19.10;100109.00;;;;2079431;28;20213;-65
2021/04/27 03:59:40;;;;;;;3.90;3.60;;;;;19.10;100109.00;;;;2079713;28;20206;-65
2021/04/27 04:00:41;;;;;;;3.53;3.23;;;;;19.00;100107.00;;;;2079687;28;20226;-65
2021/04/27 04:01:41;;;;;;;4.00;3.60;;;;;19.00;100097.00;;;;2079813;28;20214;-65
2021/04/27 04:02:41;;;;;;;4.37;3.97;;;;;19.00;100107.00;;;;2078519;28;20234;-65
2021/04/27 04:03:42;;;;;;;4.10;3.50;;;;;19.00;100102.00;;;;2079873;28;20221;-65
2021/04/27 04:04:42;;;;;;;4.10;3.67;;;;;19.00;100106.00;;;;2079436;28;20217;-65
2021/04/27 04:05:42;;;;;;;3.33;3.03;;;;;19.00;100101.00;;;;2079429;28;20225;-65
2021/04/27 04:06:43;;;;;;;4.00;3.60;;;;;19.00;100106.00;;;;2079160;28;20317;-65
2021/04/27 04:07:43;;;;;;;4.60;3.60;;;;;19.00;100105.00;;;;2079758;28;20210;-65
2021/04/27 04:08:44;;;;;;;3.40;3.10;;;;;19.00;100101.00;;;;2079585;28;20280;-65
2021/04/27 04:09:44;;;;;;;4.50;3.80;;;;;19.00;100103.00;;;;2079765;28;20696;-65
2021/04/27 04:10:45;;;;;;;3.70;3.40;;;;;19.00;100111.00;;;;2079369;28;20510;-65
2021/04/27 04:11:45;;;;;;;3.40;2.93;;;;;19.00;100106.00;;;;2076228;28;20210;-65
2021/04/27 04:12:45;;;;;;;2.93;2.73;;;;;19.00;100105.00;;;;2079754;28;20241;-65
2021/04/27 04:13:46;;;;;;;4.60;3.97;;;;;19.00;100111.00;;;;2079758;28;20301;-64
2021/04/27 04:14:46;;;;;;;3.67;3.33;;;;;19.00;100104.00;;;;2079562;28;20758;-65
2021/04/27 04:15:47;;;;;;;3.90;3.40;;;;;19.00;100110.00;;;;2079198;28;20217;-65
2021/04/27 04:16:47;;;;;;;4.33;3.93;;;;;19.00;100110.00;;;;2079415;28;20276;-65
2021/04/27 04:17:47;;;;;;;3.80;3.50;;;;;19.00;100099.00;;;;2079180;28;20271;-65
2021/04/27 04:18:48;;;;;;;4.20;3.53;;;;;19.00;100111.00;;;;2079540;28;20256;-65
2021/04/27 04:19:48;;;;;;;3.70;3.17;;;;;19.00;100114.00;;;;2078888;28;20676;-65
2021/04/27 04:20:48;;;;;;;4.10;3.70;;;;;19.00;100121.00;;;;2079096;28;20696;-65
2021/04/27 04:21:49;;;;;;;3.47;3.17;;;;;19.00;100112.00;;;;2079554;28;20242;-65
2021/04/27 04:22:49;;;;;;;3.27;2.97;;;;;19.00;100113.00;;;;2079033;28;20210;-65
2021/04/27 04:23:51;;;;;;;3.77;3.20;;;;;19.00;100114.00;;;;2079405;28;20214;-65
2021/04/27 04:24:51;;;;;;;3.50;3.20;;;;;18.90;100111.00;;;;2072373;28;20273;-65
2021/04/27 04:25:51;;;;;;;3.23;2.93;;;;;19.00;100108.00;;;;2078915;28;20271;-65
2021/04/27 04:26:52;;;;;;;3.80;3.03;;;;;18.90;100110.00;;;;2076359;28;20584;-65
2021/04/27 04:27:52;;;;;;;3.53;3.23;;;;;19.00;100115.00;;;;2078765;28;20670;-65
2021/04/27 04:28:53;;;;;;;3.53;3.23;;;;;18.90;100112.00;;;;2078574;28;20210;-65
2021/04/27 04:29:53;;;;;;;3.30;3.00;;;;;19.00;100115.00;;;;2079427;28;20235;-65
2021/04/27 04:30:53;;;;;;;3.60;2.80;;;;;18.90;100120.00;;;;2079409;28;20264;-65
2021/04/27 04:31:54;;;;;;;4.03;3.60;;;;;18.90;100116.00;;;;2079032;28;20225;-64
2021/04/27 04:32:54;;;;;;;3.70;3.40;;;;;19.00;100119.00;;;;2079531;28;20685;-65
2021/04/27 04:33:54;;;;;;;3.40;3.10;;;;;19.00;100117.00;;;;2079406;28;20577;-65
2021/04/27 04:34:55;;;;;;;3.80;3.50;;;;;19.00;100113.00;;;;2079301;28;20214;-65
2021/04/27 04:35:55;;;;;;;4.23;3.70;;;;;19.00;100116.00;;;;2078913;28;20699;-65
2021/04/27 04:36:55;;;;;;;3.80;3.17;;;;;19.00;100115.00;;;;2079333;28;20731;-65
2021/04/27 04:37:56;;;;;;;5.17;3.17;;;;;18.90;100117.00;;;;2079534;28;20716;-65
2021/04/27 04:38:56;;;;;;;3.57;3.23;;;;;19.00;100112.00;;;;2079434;28;20875;-65
2021/04/27 04:39:56;;;;;;;3.73;3.43;;;;;19.00;100123.00;;;;2079579;28;20834;-65
2021/04/27 04:40:57;;;;;;;3.40;3.10;;;;;19.00;100121.00;;;;2078340;28;20218;-65
2021/04/27 04:41:57;;;;;;;3.50;3.20;;;;;19.00;100123.00;;;;2079561;28;20225;-65
2021/04/27 04:42:58;;;;;;;3.80;3.27;;;;;19.00;100116.00;;;;2079339;28;20268;-65
2021/04/27 04:43:58;;;;;;;3.83;3.50;;;;;18.90;100116.00;;;;2075286;28;20216;-65
2021/04/27 04:44:59;;;;;;;3.30;3.00;;;;;19.00;100123.00;;;;2078982;28;21002;-65
2021/04/27 04:45:59;;;;;;;4.37;3.70;;;;;19.00;100121.00;;;;2078800;28;20217;-65
2021/04/27 04:46:59;;;;;;;3.10;2.90;;;;;19.00;100135.00;;;;2079112;28;20214;-65
2021/04/27 04:48:00;;;;;;;3.20;3.00;;;;;18.90;100122.00;;;;2079302;28;20301;-65
2021/04/27 04:49:00;;;;;;;3.00;2.70;;;;;18.90;100124.00;;;;2079391;28;20218;-65
2021/04/27 04:50:01;;;;;;;4.13;3.60;;;;;18.90;100122.00;;;;2079358;28;20241;-65
2021/04/27 04:51:02;;;;;;;3.43;3.13;;;;;18.90;100127.00;;;;2078481;28;20209;-65
2021/04/27 04:52:02;;;;;;;3.50;3.20;;;;;18.90;100133.00;;;;2079348;28;20220;-65
2021/04/27 04:53:03;;;;;;;3.17;2.93;;;;;18.90;100126.00;;;;2079252;28;20289;-65
2021/04/27 04:54:03;;;;;;;4.50;3.10;;;;;18.90;100127.00;;;;2079188;28;20218;-66
2021/04/27 04:55:05;;;;;;;3.90;3.57;;;;;19.00;100122.00;;;;2076690;28;20280;-65
2021/04/27 04:56:05;;;;;;;4.13;3.72;;;;;18.90;100124.00;;;;2078329;28;20584;-64
2021/04/27 04:57:05;;;;;;;3.57;3.27;;;;;18.90;100128.00;;;;2079001;28;20210;-64
2021/04/27 04:58:06;;;;;;;3.60;3.30;;;;;18.90;100155.00;;;;2079328;28;20275;-65
2021/04/27 04:59:06;;;;;;;3.10;2.90;;;;;18.90;100137.00;;;;2078629;28;20214;-64
2021/04/27 05:00:08;;;;;;;3.47;3.10;;;;;18.90;100135.00;;;;2078689;28;20711;-64
2021/04/27 05:01:09;;;;;;;3.78;3.47;;;;;18.90;100137.00;;;;2078552;28;20228;-64